Time;durP1;ratioP1;P1;durP2;ratioP2;P2;SDS_P1;SDS_P2;PMS_P1;PMS_P2;Temp;Humidity;BMP_temperature;BMP_pressure;BME280_temperature;BME280_humidity;BME280_pressure;Samples;Min_cycle;Max_cycle;Signal;HPM_P1;HPM_P2
2023/03/26 00:00:58;;;;;;;12.57;7.78;;;7.60;99.90;;;;;;4974652;28;20023;-73
2023/03/26 00:03:25;;;;;;;15.48;8.43;;;7.60;99.90;;;;;;4978496;28;20027;-71
2023/03/26 00:06:02;;;;;;;16.35;8.02;;;7.70;99.90;;;;;;4985945;28;20243;-74
2023/03/26 00:08:28;;;;;;;14.32;7.93;;;7.70;99.90;;;;;;4962843;28;20031;-75
2023/03/26 00:10:54;;;;;;;13.88;8.07;;;7.70;99.90;;;;;;4968312;28;20038;-75
2023/03/26 00:13:19;;;;;;;18.60;9.32;;;7.60;99.90;;;;;;4950943;28;20479;-78
2023/03/26 00:15:45;;;;;;;16.45;9.57;;;7.60;99.90;;;;;;4955720;29;20380;-77
2023/03/26 00:18:11;;;;;;;15.10;8.80;;;7.60;99.90;;;;;;4968763;28;20402;-71
2023/03/26 00:20:37;;;;;;;19.80;11.00;;;7.60;99.90;;;;;;4974980;28;20470;-76
2023/03/26 00:23:04;;;;;;;20.73;11.73;;;7.60;99.90;;;;;;4974224;28;20474;-76
2023/03/26 00:25:30;;;;;;;18.85;13.23;;;7.60;99.90;;;;;;4974863;28;20078;-75
2023/03/26 00:27:57;;;;;;;34.63;26.13;;;7.60;99.90;;;;;;4974465;28;20493;-77
2023/03/26 00:30:23;;;;;;;54.15;43.97;;;7.60;99.90;;;;;;4974507;28;20023;-76
2023/03/26 00:32:49;;;;;;;31.20;23.17;;;7.60;99.90;;;;;;4959886;28;20503;-78
2023/03/26 00:35:15;;;;;;;22.05;14.65;;;7.50;99.90;;;;;;4974932;28;20039;-76
2023/03/26 00:37:42;;;;;;;16.48;10.23;;;7.60;99.90;;;;;;4974584;28;20059;-78
2023/03/26 00:40:09;;;;;;;15.93;8.60;;;7.60;99.90;;;;;;4974138;28;20097;-76
2023/03/26 00:42:36;;;;;;;15.55;8.77;;;7.60;99.90;;;;;;4956956;28;20498;-76
2023/03/26 00:45:04;;;;;;;13.95;8.45;;;7.60;99.90;;;;;;4972770;28;20482;-76
2023/03/26 00:47:30;;;;;;;15.60;8.10;;;7.60;99.90;;;;;;4973461;28;20022;-76
2023/03/26 00:49:56;;;;;;;14.32;8.63;;;7.70;99.90;;;;;;4972914;28;20490;-77
2023/03/26 00:52:22;;;;;;;15.23;8.82;;;7.60;99.90;;;;;;4956253;28;20018;-78
2023/03/26 00:54:51;;;;;;;13.35;8.50;;;7.60;99.90;;;;;;4973029;28;20022;-77
2023/03/26 00:57:19;;;;;;;13.95;8.50;;;7.70;99.90;;;;;;4974338;28;20109;-77
2023/03/26 00:59:45;;;;;;;16.83;8.82;;;7.70;99.90;;;;;;4973706;28;20027;-76
2023/03/26 01:02:17;;;;;;;17.45;10.63;;;7.60;99.90;;;;;;4974056;28;20570;-75
2023/03/26 01:04:54;;;;;;;17.63;9.70;;;7.50;99.90;;;;;;4974190;28;20118;-75
2023/03/26 01:07:27;;;;;;;16.52;9.38;;;7.40;99.90;;;;;;4973769;28;20026;-73
2023/03/26 01:09:57;;;;;;;15.95;10.38;;;7.50;99.90;;;;;;4974241;28;20030;-76
2023/03/26 01:12:30;;;;;;;15.63;9.13;;;7.40;99.90;;;;;;4956603;28;20030;-75
2023/03/26 01:15:00;;;;;;;16.23;9.20;;;7.50;99.90;;;;;;4956683;28;20069;-76
2023/03/26 01:17:32;;;;;;;18.30;9.90;;;7.50;99.90;;;;;;4973927;28;20031;-75
2023/03/26 01:20:25;;;;;;;12.95;7.82;;;7.50;99.90;;;;;;4973958;28;20027;-77
2023/03/26 01:22:57;;;;;;;13.73;7.88;;;7.50;99.90;;;;;;4963520;28;20398;-76
2023/03/26 01:25:29;;;;;;;12.52;7.63;;;7.40;99.90;;;;;;4974142;28;20042;-78
2023/03/26 01:27:55;;;;;;;13.75;6.88;;;7.40;99.90;;;;;;4973625;28;20034;-78
2023/03/26 01:30:33;;;;;;;10.57;6.28;;;7.50;99.90;;;;;;4973630;28;20040;-77
2023/03/26 01:33:36;;;;;;;13.75;7.10;;;7.60;99.90;;;;;;4973902;28;20034;-78
2023/03/26 01:36:05;;;;;;;12.00;6.22;;;7.60;99.90;;;;;;4871850;29;20184;-78
2023/03/26 01:38:58;;;;;;;10.02;5.90;;;7.70;99.90;;;;;;4876406;29;20124;-78
2023/03/26 01:41:33;;;;;;;;;;;7.60;99.90;;;;;;4876749;29;20041;-78
2023/03/26 01:44:10;;;;;;;13.23;5.80;;;7.60;99.90;;;;;;4861165;29;19923;-78
2023/03/26 01:46:36;;;;;;;13.00;6.18;;;7.60;99.90;;;;;;4876163;29;20053;-78
2023/03/26 01:49:04;;;;;;;11.05;6.60;;;7.60;99.90;;;;;;4876834;29;20033;-78
2023/03/26 01:51:32;;;;;;;13.35;6.63;;;7.60;99.90;;;;;;4876057;29;20044;-78
2023/03/26 01:54:00;;;;;;;10.25;5.85;;;7.50;99.90;;;;;;4876665;29;20532;-78
2023/03/26 01:56:38;;;;;;;14.18;6.38;;;7.50;99.90;;;;;;4860639;29;20029;-77
2023/03/26 01:59:09;;;;;;;12.18;7.43;;;7.50;99.90;;;;;;4876263;29;20453;-77
2023/03/26 02:02:01;;;;;;;10.65;6.07;;;7.40;99.90;;;;;;4864490;29;20385;-77
2023/03/26 02:04:51;;;;;;;12.63;6.53;;;7.30;99.90;;;;;;4876101;29;20501;-77
2023/03/26 02:07:27;;;;;;;13.95;7.20;;;7.20;99.90;;;;;;4876183;29;20045;-75
2023/03/26 02:09:59;;;;;;;11.48;7.10;;;7.20;99.90;;;;;;4875931;29;20029;-76
2023/03/26 02:12:26;;;;;;;13.30;7.50;;;7.10;99.90;;;;;;4937977;28;20043;-77
2023/03/26 02:14:52;;;;;;;12.57;7.43;;;7.10;99.90;;;;;;4972300;28;20373;-76
2023/03/26 02:17:22;;;;;;;14.18;7.65;;;7.10;99.90;;;;;;4955855;28;20029;-77
2023/03/26 02:19:50;;;;;;;13.45;7.82;;;7.10;99.90;;;;;;4970634;28;20027;-75
2023/03/26 02:22:16;;;;;;;15.00;8.57;;;7.20;99.90;;;;;;4969964;28;20459;-77
2023/03/26 02:24:44;;;;;;;12.73;7.65;;;7.20;99.90;;;;;;4970857;28;20042;-72
2023/03/26 02:27:11;;;;;;;13.57;7.47;;;7.20;99.90;;;;;;4970599;28;20110;-75
2023/03/26 02:29:39;;;;;;;11.63;6.28;;;7.10;99.90;;;;;;4972119;28;20041;-77
2023/03/26 02:32:12;;;;;;;11.55;6.57;;;7.10;99.90;;;;;;4971332;28;20105;-76
2023/03/26 02:34:39;;;;;;;14.95;7.63;;;7.10;99.90;;;;;;4969946;28;20077;-78
2023/03/26 02:37:05;;;;;;;9.68;6.10;;;7.10;99.90;;;;;;4972869;28;20023;-77
2023/03/26 02:39:32;;;;;;;13.75;6.65;;;7.10;99.90;;;;;;4972119;28;20118;-76
2023/03/26 02:42:02;;;;;;;12.07;6.18;;;7.10;99.90;;;;;;4955534;28;20050;-77
2023/03/26 02:44:31;;;;;;;14.63;7.43;;;7.10;99.90;;;;;;4971289;28;20031;-76
2023/03/26 02:46:57;;;;;;;15.07;7.18;;;7.20;99.90;;;;;;4963597;28;20042;-77
2023/03/26 02:49:55;;;;;;;20.95;12.40;;;7.20;99.90;;;;;;4873309;29;20097;-78
2023/03/26 02:52:47;;;;;;;21.42;14.35;;;7.10;99.90;;;;;;4853512;29;20046;-74
2023/03/26 02:55:14;;;;;;;21.00;12.93;;;7.10;99.90;;;;;;4854463;29;20038;-77
2023/03/26 02:57:41;;;;;;;20.98;13.50;;;7.00;99.90;;;;;;4842580;29;20034;-74
2023/03/26 03:00:13;;;;;;;22.33;13.05;;;6.90;99.90;;;;;;4849747;29;20478;-78
2023/03/26 03:02:46;;;;;;;21.13;12.07;;;7.00;99.90;;;;;;4857004;29;20477;-71
2023/03/26 03:05:33;;;;;;;22.98;12.40;;;7.00;99.90;;;;;;4856370;29;20098;-76
2023/03/26 03:08:28;;;;;;;22.35;12.63;;;6.90;99.90;;;;;;4853914;29;20050;-77
2023/03/26 03:11:26;;;;;;;22.10;12.77;;;6.90;99.90;;;;;;4841460;29;20455;-78
2023/03/26 03:13:52;;;;;;;21.43;12.13;;;6.90;99.90;;;;;;4857366;29;20033;-78
2023/03/26 03:16:21;;;;;;;23.33;12.60;;;6.90;99.90;;;;;;4844708;29;20461;-79
2023/03/26 03:18:55;;;;;;;21.77;14.05;;;6.90;99.90;;;;;;4860165;29;20041;-78
2023/03/26 03:21:24;;;;;;;21.00;13.15;;;6.80;99.90;;;;;;4844824;29;20086;-76
2023/03/26 03:23:50;;;;;;;23.10;13.60;;;6.80;99.90;;;;;;4857829;29;20087;-72
2023/03/26 03:26:21;;;;;;;29.67;14.55;;;6.80;99.90;;;;;;4905933;29;20404;-73
2023/03/26 03:28:52;;;;;;;21.70;13.90;;;6.70;99.90;;;;;;4923782;28;20035;-79
2023/03/26 03:31:18;;;;;;;20.30;12.82;;;6.60;99.90;;;;;;4975882;28;20026;-75
2023/03/26 03:33:45;;;;;;;21.15;12.20;;;6.60;99.90;;;;;;4958204;28;20019;-76
2023/03/26 03:36:16;;;;;;;21.25;13.38;;;6.60;99.90;;;;;;4958669;28;20126;-74
2023/03/26 03:38:43;;;;;;;22.98;13.80;;;6.50;99.90;;;;;;4958365;28;20498;-77
2023/03/26 03:41:11;;;;;;;20.55;13.25;;;6.50;99.90;;;;;;4958266;28;20069;-73
2023/03/26 03:43:40;;;;;;;23.27;12.35;;;6.50;99.90;;;;;;4952043;29;20032;-73
2023/03/26 03:46:13;;;;;;;21.02;13.05;;;6.50;99.90;;;;;;4969679;28;20094;-78
2023/03/26 03:48:48;;;;;;;19.38;12.50;;;6.50;99.90;;;;;;4975703;28;20026;-78
2023/03/26 03:51:29;;;;;;;21.73;12.70;;;6.50;99.90;;;;;;4974120;28;20027;-78
2023/03/26 03:53:57;;;;;;;25.33;13.50;;;6.50;99.90;;;;;;4957980;28;20027;-79
2023/03/26 03:56:40;;;;;;;;;;;6.60;99.90;;;;;;4958781;28;20023;-76
2023/03/26 03:59:24;;;;;;;22.73;12.57;;;6.60;99.90;;;;;;4975912;28;19925;-70
2023/03/26 04:01:51;;;;;;;25.00;18.98;;;6.60;99.90;;;;;;4957216;28;20133;-79
2023/03/26 04:04:39;;;;;;;30.08;20.23;;;6.60;99.90;;;;;;4957866;28;20039;-80
2023/03/26 04:07:09;;;;;;;26.73;18.77;;;6.50;99.90;;;;;;4957796;28;20027;-79
2023/03/26 04:09:56;;;;;;;24.80;16.50;;;6.50;99.90;;;;;;4964540;28;20463;-76
2023/03/26 04:12:27;;;;;;;21.65;13.88;;;6.60;99.90;;;;;;4957890;28;20038;-72
2023/03/26 04:14:59;;;;;;;25.25;14.70;;;6.60;99.90;;;;;;4957872;28;20042;-79
2023/03/26 04:17:25;;;;;;;45.97;34.17;;;6.60;99.90;;;;;;4956776;28;20026;-75
2023/03/26 04:19:54;;;;;;;40.28;29.05;;;6.60;99.90;;;;;;4975337;28;20103;-75
2023/03/26 04:22:25;;;;;;;30.20;16.95;;;6.50;99.90;;;;;;4957306;28;20176;-74
2023/03/26 04:25:01;;;;;;;23.15;13.85;;;6.40;99.90;;;;;;4957594;28;20122;-79
2023/03/26 04:27:45;;;;;;;21.00;12.32;;;6.40;99.90;;;;;;4963594;28;20061;-79
2023/03/26 04:30:29;;;;;;;22.15;13.10;;;6.40;99.90;;;;;;4974842;28;20097;-76
2023/03/26 04:33:05;;;;;;;18.27;10.93;;;6.40;99.90;;;;;;4956956;28;20408;-79
2023/03/26 04:35:35;;;;;;;20.35;11.88;;;6.40;99.90;;;;;;4973603;28;20039;-77
2023/03/26 04:38:05;;;;;;;23.50;13.73;;;6.40;99.90;;;;;;4956832;28;20027;-77
2023/03/26 04:40:37;;;;;;;19.77;11.73;;;6.40;99.90;;;;;;4957183;28;20038;-78
2023/03/26 04:43:15;;;;;;;18.77;10.85;;;6.30;99.90;;;;;;4956861;28;20034;-73
2023/03/26 04:46:12;;;;;;;15.50;9.55;;;6.30;99.90;;;;;;4956449;28;20070;-77
2023/03/26 04:48:50;;;;;;;19.05;9.80;;;6.40;99.90;;;;;;4957380;28;20081;-79
2023/03/26 04:51:20;;;;;;;16.98;10.00;;;6.50;99.90;;;;;;4957065;28;20030;-78
2023/03/26 04:53:58;;;;;;;20.13;10.98;;;7.50;99.90;;;;;;4957088;28;20062;-78
2023/03/26 04:56:53;;;;;;;18.25;10.00;;;8.20;99.90;;;;;;4956932;28;20027;-79
2023/03/26 04:59:40;;;;;;;17.65;8.57;;;8.90;99.90;;;;;;4956882;28;20448;-79
2023/03/26 05:02:11;;;;;;;19.73;11.15;;;9.60;99.90;;;;;;4956049;28;20065;-79
2023/03/26 05:04:48;;;;;;;46.45;29.35;;;10.10;99.90;;;;;;4956811;28;20138;-79
2023/03/26 05:07:24;;;;;;;78.28;48.95;;;10.60;99.90;;;;;;4954091;28;20165;-78
2023/03/26 05:09:56;;;;;;;46.67;29.40;;;11.10;99.90;;;;;;4956730;28;20034;-79
2023/03/26 05:12:42;;;;;;;28.75;19.00;;;11.80;99.90;;;;;;4973094;28;20216;-79
2023/03/26 05:15:13;;;;;;;26.50;17.30;;;12.30;99.90;;;;;;4973116;28;20042;-73
2023/03/26 05:17:59;;;;;;;23.38;12.93;;;12.90;99.90;;;;;;4933028;29;20035;-75
2023/03/26 05:20:42;;;;;;;21.60;11.35;;;13.60;99.90;;;;;;4916951;29;20043;-78
2023/03/26 05:23:09;;;;;;;16.73;9.77;;;14.00;99.50;;;;;;4933012;29;20059;-78
2023/03/26 05:25:39;;;;;;;16.85;10.50;;;14.10;98.40;;;;;;4916926;29;20523;-79
2023/03/26 05:28:12;;;;;;;18.20;10.30;;;14.50;98.00;;;;;;4933239;29;20479;-78
2023/03/26 05:30:47;;;;;;;21.73;11.52;;;14.70;96.00;;;;;;4933482;29;20032;-77
2023/03/26 05:33:13;;;;;;;21.65;11.93;;;14.90;96.40;;;;;;4920590;29;20068;-78
2023/03/26 05:35:48;;;;;;;21.98;14.82;;;14.00;95.40;;;;;;4917133;29;20063;-72
2023/03/26 05:38:15;;;;;;;19.60;12.13;;;13.40;96.30;;;;;;4932877;29;20074;-78
2023/03/26 05:40:41;;;;;;;21.65;14.52;;;13.10;97.20;;;;;;4910076;29;20400;-76
2023/03/26 05:43:08;;;;;;;19.73;12.40;;;12.90;99.80;;;;;;4915036;29;20036;-78
2023/03/26 05:45:33;;;;;;;19.35;11.48;;;12.20;99.90;;;;;;4927052;29;20123;-76
2023/03/26 05:48:09;;;;;;;20.65;12.50;;;11.90;99.90;;;;;;4917079;29;20032;-76
2023/03/26 05:50:35;;;;;;;20.13;12.65;;;11.40;99.90;;;;;;4908988;29;20447;-76
2023/03/26 05:53:01;;;;;;;23.45;14.30;;;11.10;99.90;;;;;;4924025;29;20113;-77
2023/03/26 05:55:49;;;;;;;29.45;17.70;;;10.80;99.90;;;;;;4959685;28;20502;-77
2023/03/26 05:58:36;;;;;;;24.55;15.85;;;10.80;99.90;;;;;;4965658;28;20098;-77
2023/03/26 06:01:21;;;;;;;30.63;17.48;;;10.70;99.90;;;;;;4971637;28;20037;-71
2023/03/26 06:04:05;;;;;;;30.90;20.55;;;10.80;99.90;;;;;;4970642;28;20517;-76
2023/03/26 06:06:38;;;;;;;25.60;17.67;;;10.70;99.90;;;;;;4948032;28;20409;-77
2023/03/26 06:09:05;;;;;;;25.23;15.30;;;10.60;99.90;;;;;;4971847;28;20045;-77
2023/03/26 06:11:31;;;;;;;27.08;15.40;;;10.80;99.90;;;;;;4971450;28;20034;-76
2023/03/26 06:13:58;;;;;;;24.33;14.07;;;10.90;99.90;;;;;;4955503;28;20027;-75
2023/03/26 06:16:25;;;;;;;25.38;15.00;;;11.20;99.90;;;;;;4955442;28;20027;-77
2023/03/26 06:19:23;;;;;;;25.80;16.77;;;11.40;99.90;;;;;;4893976;29;20032;-76
2023/03/26 06:21:59;;;;;;;26.67;16.92;;;11.50;99.90;;;;;;4894133;29;20033;-76
2023/03/26 06:24:30;;;;;;;26.10;16.70;;;11.50;99.90;;;;;;4878667;29;20029;-72
2023/03/26 06:27:25;;;;;;;30.50;17.55;;;11.50;99.90;;;;;;4856851;29;20040;-75
2023/03/26 06:30:10;;;;;;;25.23;16.48;;;11.60;99.90;;;;;;4857141;29;20413;-75
2023/03/26 06:32:49;;;;;;;27.23;16.33;;;11.80;99.90;;;;;;4856959;29;20128;-76
2023/03/26 06:35:21;;;;;;;28.55;18.95;;;11.90;99.90;;;;;;4842005;29;20116;-76
2023/03/26 06:37:47;;;;;;;25.52;17.73;;;12.10;99.90;;;;;;4857383;29;20042;-77
2023/03/26 06:40:13;;;;;;;24.80;15.35;;;12.20;99.90;;;;;;4852898;29;20037;-76
2023/03/26 06:42:57;;;;;;;25.60;16.33;;;12.30;99.90;;;;;;4837960;29;20049;-76
2023/03/26 06:45:38;;;;;;;28.45;16.23;;;12.30;99.90;;;;;;4837685;29;20046;-76
2023/03/26 06:48:22;;;;;;;27.35;15.68;;;12.50;99.90;;;;;;4837218;29;20084;-70
2023/03/26 06:51:26;;;;;;;24.23;15.05;;;12.60;99.90;;;;;;4770512;30;20058;-74
2023/03/26 06:54:31;;;;;;;25.15;14.88;;;12.80;99.90;;;;;;4757094;30;20073;-71
2023/03/26 06:57:04;;;;;;;20.95;13.27;;;12.90;99.90;;;;;;4769108;30;20051;-71
2023/03/26 06:59:56;;;;;;;16.23;8.88;;;13.10;99.90;;;;;;4769700;30;20048;-73
2023/03/26 07:02:41;;;;;;;17.98;8.50;;;13.10;99.90;;;;;;4770154;29;20573;-74
2023/03/26 07:05:25;;;;;;;13.02;7.03;;;13.20;99.90;;;;;;4794591;29;20132;-75
2023/03/26 07:08:09;;;;;;;16.08;6.68;;;13.30;99.90;;;;;;4805725;29;20118;-73
2023/03/26 07:10:54;;;;;;;17.58;7.50;;;13.20;99.90;;;;;;4805771;29;20582;-73
2023/03/26 07:13:47;;;;;;;13.52;7.07;;;13.50;99.90;;;;;;4802198;29;20023;-73
2023/03/26 07:16:31;;;;;;;13.18;7.03;;;13.70;99.90;;;;;;4792655;29;20062;-74
2023/03/26 07:19:22;;;;;;;17.05;6.93;;;13.90;99.90;;;;;;4790026;29;20050;-73
2023/03/26 07:21:49;;;;;;;12.70;6.70;;;14.20;99.90;;;;;;4837013;29;20048;-74
2023/03/26 07:24:35;;;;;;;9.93;5.38;;;14.40;99.90;;;;;;4915227;29;20032;-73
2023/03/26 07:27:38;;;;;;;19.48;5.28;;;14.70;99.90;;;;;;4935884;29;20032;-73
2023/03/26 07:30:10;;;;;;;10.25;4.97;;;14.70;99.90;;;;;;4935896;29;20023;-73
2023/03/26 07:32:58;;;;;;;7.13;3.47;;;15.00;99.90;;;;;;4932439;29;20027;-73
2023/03/26 07:35:56;;;;;;;4.97;2.65;;;15.00;99.50;;;;;;4923869;29;20038;-73
2023/03/26 07:38:41;;;;;;;5.10;3.03;;;15.10;97.70;;;;;;4938872;29;20035;-74
2023/03/26 07:41:52;;;;;;;7.72;3.63;;;15.20;97.40;;;;;;4954762;28;20047;-73
2023/03/26 07:44:59;;;;;;;6.63;2.72;;;15.30;97.80;;;;;;4940943;29;20130;-74
2023/03/26 07:47:55;;;;;;;6.95;3.78;;;15.50;96.70;;;;;;4935413;29;20448;-74
2023/03/26 07:50:35;;;;;;;6.82;3.35;;;15.70;98.10;;;;;;4931159;29;20027;-71
2023/03/26 07:53:10;;;;;;;5.55;2.78;;;15.90;95.80;;;;;;4928978;29;20391;-74
2023/03/26 07:56:13;;;;;;;11.85;3.33;;;16.00;94.80;;;;;;4946101;29;20388;-73
2023/03/26 07:59:13;;;;;;;7.07;3.15;;;16.00;96.50;;;;;;4931051;29;20099;-74
2023/03/26 08:02:23;;;;;;;3.47;2.63;;;16.20;95.10;;;;;;4896291;29;20032;-74
2023/03/26 08:05:04;;;;;;;5.57;2.42;;;16.20;95.00;;;;;;4885285;29;20100;-73
2023/03/26 08:07:57;;;;;;;4.57;1.90;;;16.30;94.10;;;;;;4896839;29;20051;-73
2023/03/26 08:10:42;;;;;;;3.17;2.10;;;16.50;94.60;;;;;;4881219;29;20045;-73
2023/03/26 08:13:41;;;;;;;3.58;1.98;;;16.60;93.90;;;;;;4896511;29;20032;-74
2023/03/26 08:16:10;;;;;;;3.55;2.20;;;16.70;93.20;;;;;;4896702;29;20041;-72
2023/03/26 08:19:02;;;;;;;4.93;2.22;;;16.80;92.00;;;;;;4896315;29;20024;-74
2023/03/26 08:21:52;;;;;;;3.35;1.67;;;16.80;87.60;;;;;;4886985;29;20037;-74
2023/03/26 08:24:26;;;;;;;4.03;1.20;;;16.80;87.60;;;;;;4859116;29;20049;-74
2023/03/26 08:27:07;;;;;;;2.38;1.13;;;16.80;86.80;;;;;;4858665;29;20060;-73
2023/03/26 08:29:36;;;;;;;2.53;1.20;;;16.90;89.70;;;;;;4858876;29;20129;-73
2023/03/26 08:32:08;;;;;;;1.67;1.25;;;17.10;86.50;;;;;;4858976;29;20166;-74
2023/03/26 08:34:34;;;;;;;3.80;1.35;;;17.10;84.50;;;;;;4858213;29;20059;-73
2023/03/26 08:37:00;;;;;;;1.55;0.85;;;17.20;85.30;;;;;;4872438;29;20041;-74
2023/03/26 08:39:26;;;;;;;2.80;0.98;;;17.30;81.40;;;;;;4877265;29;20041;-74
2023/03/26 08:42:04;;;;;;;6.13;1.10;;;17.20;81.50;;;;;;4877099;29;20093;-73
2023/03/26 08:44:48;;;;;;;3.40;1.05;;;16.70;74.70;;;;;;4876908;29;20037;-73
2023/03/26 08:47:30;;;;;;;3.78;1.23;;;16.70;80.20;;;;;;4875683;29;20151;-74
2023/03/26 08:50:26;;;;;;;4.10;1.65;;;17.00;82.60;;;;;;4876572;29;20033;-71
2023/03/26 08:53:09;;;;;;;4.28;1.23;;;17.30;81.20;;;;;;4877058;29;20418;-71
2023/03/26 08:55:55;;;;;;;1.02;0.90;;;17.20;80.00;;;;;;4876332;29;20045;-72
2023/03/26 08:59:03;;;;;;;1.88;1.00;;;17.30;79.30;;;;;;4875444;29;20056;-73
2023/03/26 09:02:00;;;;;;;4.22;1.23;;;17.50;80.40;;;;;;4918582;29;20074;-73
2023/03/26 09:04:29;;;;;;;4.57;1.42;;;17.50;78.60;;;;;;4954588;29;20023;-71
2023/03/26 09:07:19;;;;;;;4.68;1.88;;;17.40;80.40;;;;;;4955334;29;20529;-70
2023/03/26 09:09:54;;;;;;;2.85;1.45;;;17.40;78.00;;;;;;4954412;28;20023;-73
2023/03/26 09:12:43;;;;;;;1.92;1.08;;;17.60;78.30;;;;;;4953707;28;20030;-72
2023/03/26 09:15:45;;;;;;;1.70;0.93;;;17.70;79.50;;;;;;4942254;29;20020;-72
2023/03/26 09:18:49;;;;;;;2.17;0.95;;;17.70;72.20;;;;;;4954438;29;20031;-73
2023/03/26 09:21:30;;;;;;;2.22;1.00;;;17.40;74.40;;;;;;4954569;29;20094;-74
2023/03/26 09:24:17;;;;;;;2.42;1.45;;;17.40;78.80;;;;;;4954815;29;20387;-73
2023/03/26 09:27:05;;;;;;;4.38;1.40;;;17.40;76.20;;;;;;4943503;29;20035;-72
2023/03/26 09:29:43;;;;;;;1.95;1.17;;;17.40;75.70;;;;;;4954259;29;20090;-73
2023/03/26 09:32:24;;;;;;;1.67;1.10;;;17.30;77.60;;;;;;4950351;29;20449;-71
2023/03/26 09:35:07;;;;;;;3.30;1.50;;;17.30;74.70;;;;;;4952432;29;20487;-70
2023/03/26 09:37:54;;;;;;;4.82;1.58;;;17.20;76.80;;;;;;4953612;29;20031;-73
2023/03/26 09:40:47;;;;;;;2.15;1.00;;;17.30;77.10;;;;;;4958403;28;20042;-70
2023/03/26 09:43:12;;;;;;;;;;;17.30;75.50;;;;;;4876417;29;20056;-73
2023/03/26 09:45:41;;;;;;;7.00;2.75;;;17.10;72.70;;;;;;4860002;29;19920;-73
2023/03/26 09:48:44;;;;;;;6.13;1.00;;;17.20;77.00;;;;;;4875857;29;20033;-73
2023/03/26 09:51:32;;;;;;;1.85;1.10;;;17.50;75.20;;;;;;4873128;29;20072;-70
2023/03/26 09:54:43;;;;;;;1.60;0.90;;;17.70;77.30;;;;;;4876470;29;20105;-71
2023/03/26 09:57:38;;;;;;;4.93;1.92;;;17.50;73.00;;;;;;4860137;29;20040;-71
2023/03/26 10:00:18;;;;;;;3.58;1.60;;;17.70;74.90;;;;;;4875540;29;20097;-73
2023/03/26 10:03:12;;;;;;;3.20;1.58;;;17.70;73.60;;;;;;4875496;29;20516;-72
2023/03/26 10:06:10;;;;;;;2.97;1.33;;;17.60;73.10;;;;;;4875571;29;20124;-72
2023/03/26 10:08:43;;;;;;;4.80;1.95;;;17.30;73.40;;;;;;4875998;29;20033;-71
2023/03/26 10:11:36;;;;;;;4.70;2.08;;;17.20;75.70;;;;;;4875443;29;20064;-74
2023/03/26 10:14:20;;;;;;;;;;;17.40;74.00;;;;;;4876245;29;20135;-73
2023/03/26 10:17:07;;;;;;;2.55;1.10;;;17.50;77.70;;;;;;4875550;29;19968;-71
2023/03/26 10:20:01;;;;;;;2.47;1.30;;;17.20;73.30;;;;;;4891135;29;20103;-72
2023/03/26 10:22:50;;;;;;;3.42;1.50;;;17.20;75.70;;;;;;4951193;29;20031;-73
2023/03/26 10:25:27;;;;;;;4.13;2.15;;;17.30;73.30;;;;;;4952121;28;20050;-70
2023/03/26 10:28:38;;;;;;;4.55;2.50;;;17.50;73.70;;;;;;4944465;29;20538;-73
2023/03/26 10:31:16;;;;;;;2.35;1.15;;;17.40;73.20;;;;;;4953439;29;20050;-72
2023/03/26 10:33:48;;;;;;;5.18;2.28;;;17.50;74.50;;;;;;4955571;29;20118;-71
2023/03/26 10:36:31;;;;;;;4.07;1.60;;;17.40;74.70;;;;;;4957279;29;20035;-72
2023/03/26 10:39:38;;;;;;;6.07;1.75;;;17.40;76.20;;;;;;4957404;29;20372;-72
2023/03/26 10:42:32;;;;;;;6.57;2.60;;;17.50;75.80;;;;;;4916634;29;20047;-70
2023/03/26 10:45:30;;;;;;;1.70;1.17;;;17.80;78.30;;;;;;4906473;29;20188;-71
2023/03/26 10:48:14;;;;;;;7.03;2.83;;;18.00;75.40;;;;;;4912492;29;20199;-72
2023/03/26 10:51:11;;;;;;;2.28;1.40;;;18.00;75.80;;;;;;4910158;29;20036;-72
2023/03/26 10:53:40;;;;;;;2.78;1.33;;;18.10;74.40;;;;;;4896453;29;20048;-73
2023/03/26 10:56:33;;;;;;;1.85;1.00;;;18.00;73.10;;;;;;4899504;29;20028;-72
2023/03/26 10:59:09;;;;;;;1.92;1.33;;;18.00;73.50;;;;;;4897449;29;20041;-70
2023/03/26 11:01:44;;;;;;;3.05;1.20;;;18.20;75.10;;;;;;4897490;29;20211;-73
2023/03/26 11:04:45;;;;;;;4.00;1.55;;;18.20;74.80;;;;;;4898050;29;20202;-72
2023/03/26 11:07:32;;;;;;;5.32;1.67;;;18.40;74.90;;;;;;4907951;29;20055;-72
2023/03/26 11:10:14;;;;;;;4.60;2.00;;;18.30;73.10;;;;;;4911274;29;20119;-72
2023/03/26 11:12:52;;;;;;;3.97;1.98;;;18.30;72.70;;;;;;4899227;29;20084;-70
2023/03/26 11:15:41;;;;;;;5.18;1.77;;;18.40;73.10;;;;;;4916475;29;20483;-70
2023/03/26 11:18:17;;;;;;;2.08;1.40;;;18.40;76.20;;;;;;4920562;29;20499;-73
2023/03/26 11:20:52;;;;;;;7.70;4.20;;;18.50;72.90;;;;;;4937566;29;20026;-72
2023/03/26 11:23:33;;;;;;;6.90;3.03;;;18.40;72.90;;;;;;4936314;29;20032;-71
2023/03/26 11:26:02;;;;;;;5.17;1.60;;;18.30;71.80;;;;;;4925658;29;20122;-72
2023/03/26 11:28:31;;;;;;;2.83;1.33;;;18.20;71.40;;;;;;4952389;29;20129;-71
2023/03/26 11:31:39;;;;;;;2.28;1.30;;;18.10;74.70;;;;;;4932705;29;20030;-72
2023/03/26 11:34:19;;;;;;;2.60;0.70;;;18.00;73.50;;;;;;4924230;29;20027;-72
2023/03/26 11:36:52;;;;;;;4.18;1.92;;;18.00;73.20;;;;;;4932374;29;20051;-70
2023/03/26 11:39:25;;;;;;;4.40;1.52;;;18.10;74.80;;;;;;4936125;29;20087;-73
2023/03/26 11:42:01;;;;;;;1.83;0.60;;;18.30;74.30;;;;;;4956010;28;20079;-72
2023/03/26 11:44:44;;;;;;;1.90;0.82;;;18.30;72.80;;;;;;4973202;28;20117;-72
2023/03/26 11:47:17;;;;;;;4.22;1.23;;;18.30;74.30;;;;;;4977614;28;20464;-73
2023/03/26 11:49:46;;;;;;;2.13;1.23;;;18.40;73.50;;;;;;4976284;28;20039;-72
2023/03/26 11:52:14;;;;;;;1.38;0.60;;;18.50;74.80;;;;;;4975382;28;20034;-72
2023/03/26 11:54:42;;;;;;;5.63;2.55;;;18.40;74.00;;;;;;4939375;28;20498;-69
2023/03/26 11:57:17;;;;;;;2.60;1.20;;;18.50;74.40;;;;;;4939902;29;20050;-71
2023/03/26 11:59:49;;;;;;;1.55;1.20;;;18.60;73.30;;;;;;4969985;28;20031;-72
2023/03/26 12:02:32;;;;;;;2.50;1.40;;;18.70;74.00;;;;;;4973101;28;20126;-72
2023/03/26 12:05:28;;;;;;;4.03;1.58;;;18.80;75.10;;;;;;4971197;28;20051;-71
2023/03/26 12:07:58;;;;;;;2.78;1.38;;;18.80;78.00;;;;;;4955224;29;20126;-73
2023/03/26 12:10:27;;;;;;;0.82;0.70;;;18.80;75.40;;;;;;4956547;28;20022;-72
2023/03/26 12:12:57;;;;;;;1.30;0.75;;;18.90;72.80;;;;;;4971589;28;20478;-73
2023/03/26 12:15:24;;;;;;;4.20;1.35;;;18.90;71.40;;;;;;4965115;28;20410;-70
2023/03/26 12:17:55;;;;;;;2.85;1.23;;;18.80;75.50;;;;;;4971616;28;20539;-74
2023/03/26 12:20:31;;;;;;;1.80;0.75;;;18.80;74.00;;;;;;4969279;28;20078;-71
2023/03/26 12:22:58;;;;;;;3.10;1.50;;;18.80;74.30;;;;;;4972421;28;20026;-72
2023/03/26 12:25:32;;;;;;;2.20;1.33;;;18.50;71.30;;;;;;4953659;28;20039;-70
2023/03/26 12:28:01;;;;;;;5.40;0.95;;;18.50;73.90;;;;;;4973489;28;20042;-73
2023/03/26 12:30:32;;;;;;;6.53;3.20;;;18.40;74.00;;;;;;4968668;28;20063;-72
2023/03/26 12:33:03;;;;;;;2.38;1.27;;;18.50;74.60;;;;;;4968493;28;20027;-74
2023/03/26 12:35:33;;;;;;;2.22;0.60;;;18.40;74.30;;;;;;4956822;28;20085;-72
2023/03/26 12:38:36;;;;;;;1.58;1.08;;;18.40;73.20;;;;;;4973984;28;20046;-72
2023/03/26 12:41:10;;;;;;;2.95;1.10;;;18.50;74.10;;;;;;4924838;29;20507;-73
2023/03/26 12:43:40;;;;;;;0.55;0.50;;;18.40;72.20;;;;;;4914472;29;20141;-72
2023/03/26 12:46:26;;;;;;;2.38;1.08;;;18.30;71.20;;;;;;4933395;29;20047;-72
2023/03/26 12:48:58;;;;;;;2.08;0.95;;;18.20;72.30;;;;;;4930288;29;20067;-73
2023/03/26 12:51:33;;;;;;;1.52;0.90;;;18.00;73.80;;;;;;4933676;29;20364;-73
2023/03/26 12:54:00;;;;;;;1.45;0.98;;;17.90;72.60;;;;;;4930938;29;20400;-72
2023/03/26 12:56:35;;;;;;;1.10;1.00;;;17.90;73.60;;;;;;4926200;29;20047;-73
2023/03/26 12:59:24;;;;;;;1.23;0.80;;;17.90;70.80;;;;;;4933736;29;20031;-71
2023/03/26 13:02:47;;;;;;;2.08;1.13;;;18.00;69.10;;;;;;4933203;29;20083;-73
2023/03/26 13:05:31;;;;;;;5.05;2.45;;;18.20;71.50;;;;;;4895141;29;20041;-73
2023/03/26 13:08:19;;;;;;;4.35;1.10;;;18.40;74.00;;;;;;4884361;29;20052;-74
2023/03/26 13:11:10;;;;;;;2.60;0.90;;;18.50;70.00;;;;;;4883465;29;20048;-73
2023/03/26 13:13:47;;;;;;;1.13;0.50;;;18.50;72.30;;;;;;4883077;29;20429;-74
2023/03/26 13:16:22;;;;;;;1.83;0.95;;;18.50;68.30;;;;;;4914423;29;20092;-72
2023/03/26 13:18:55;;;;;;;4.93;2.22;;;18.60;71.20;;;;;;4914359;29;20071;-73
2023/03/26 13:21:24;;;;;;;1.33;0.70;;;18.60;67.80;;;;;;4914415;29;20063;-73
2023/03/26 13:24:00;;;;;;;1.10;0.88;;;18.80;69.80;;;;;;4914440;29;20028;-72
2023/03/26 13:26:54;;;;;;;3.97;0.85;;;18.70;67.50;;;;;;4914239;29;20052;-74
2023/03/26 13:29:40;;;;;;;2.05;0.93;;;18.70;70.00;;;;;;4913977;29;20046;-70
2023/03/26 13:32:28;;;;;;;1.67;1.00;;;18.60;69.60;;;;;;4887476;29;20032;-70
2023/03/26 13:35:19;;;;;;;0.63;0.50;;;18.60;68.70;;;;;;4913989;29;20060;-72
2023/03/26 13:38:12;;;;;;;0.93;0.57;;;18.50;63.60;;;;;;4914251;29;20064;-73
2023/03/26 13:41:14;;;;;;;0.85;0.60;;;18.50;65.00;;;;;;4973476;28;20031;-72